sensor_id;sensor_type;location;lat;lon;timestamp;temperature;humidity
37998;DHT22;24079;51.824;4.682;2022-12-01T00:00:10;5.90;99.90
37998;DHT22;24079;51.824;4.682;2022-12-01T00:02:37;5.90;99.90
37998;DHT22;24079;51.824;4.682;2022-12-01T00:05:02;5.80;99.90
37998;DHT22;24079;51.824;4.682;2022-12-01T00:07:28;5.80;99.90
37998;DHT22;24079;51.824;4.682;2022-12-01T00:09:53;5.80;99.90
37998;DHT22;24079;51.824;4.682;2022-12-01T00:12:38;5.80;99.90
37998;DHT22;24079;51.824;4.682;2022-12-01T00:15:09;5.80;99.90
37998;DHT22;24079;51.824;4.682;2022-12-01T00:17:35;5.80;99.90
37998;DHT22;24079;51.824;4.682;2022-12-01T00:20:00;5.70;99.90
37998;DHT22;24079;51.824;4.682;2022-12-01T00:22:26;5.70;99.90
37998;DHT22;24079;51.824;4.682;2022-12-01T00:24:52;5.70;99.90
37998;DHT22;24079;51.824;4.682;2022-12-01T00:27:17;5.60;99.90
37998;DHT22;24079;51.824;4.682;2022-12-01T00:29:44;5.60;99.90
37998;DHT22;24079;51.824;4.682;2022-12-01T00:32:10;5.60;99.90
37998;DHT22;24079;51.824;4.682;2022-12-01T00:34:36;5.60;99.90
37998;DHT22;24079;51.824;4.682;2022-12-01T00:37:03;5.60;99.90
37998;DHT22;24079;51.824;4.682;2022-12-01T00:39:29;5.60;99.90
37998;DHT22;24079;51.824;4.682;2022-12-01T00:41:54;5.60;99.90
37998;DHT22;24079;51.824;4.682;2022-12-01T00:44:20;5.60;99.90
37998;DHT22;24079;51.824;4.682;2022-12-01T00:46:45;5.60;99.90
37998;DHT22;24079;51.824;4.682;2022-12-01T00:49:12;5.60;99.90
37998;DHT22;24079;51.824;4.682;2022-12-01T00:51:37;5.60;99.90
37998;DHT22;24079;51.824;4.682;2022-12-01T00:54:03;5.60;99.90
37998;DHT22;24079;51.824;4.682;2022-12-01T00:56:29;5.60;99.90
37998;DHT22;24079;51.824;4.682;2022-12-01T00:58:54;5.70;99.90
37998;DHT22;24079;51.824;4.682;2022-12-01T01:01:20;5.70;99.90
37998;DHT22;24079;51.824;4.682;2022-12-01T01:03:46;5.70;99.90
37998;DHT22;24079;51.824;4.682;2022-12-01T01:06:12;5.70;99.90
37998;DHT22;24079;51.824;4.682;2022-12-01T01:08:39;5.70;99.90
37998;DHT22;24079;51.824;4.682;2022-12-01T01:11:05;5.70;99.90
37998;DHT22;24079;51.824;4.682;2022-12-01T01:13:32;5.70;99.90
37998;DHT22;24079;51.824;4.682;2022-12-01T01:15:58;5.80;99.90
37998;DHT22;24079;51.824;4.682;2022-12-01T01:18:24;5.90;99.90
37998;DHT22;24079;51.824;4.682;2022-12-01T01:21:02;5.90;99.90
37998;DHT22;24079;51.824;4.682;2022-12-01T01:23:28;5.90;99.90
37998;DHT22;24079;51.824;4.682;2022-12-01T01:26:21;5.90;99.90
37998;DHT22;24079;51.824;4.682;2022-12-01T01:28:46;5.90;99.90
37998;DHT22;24079;51.824;4.682;2022-12-01T01:31:15;6.00;99.90
37998;DHT22;24079;51.824;4.682;2022-12-01T01:33:41;5.90;99.90
37998;DHT22;24079;51.824;4.682;2022-12-01T01:36:08;5.90;99.90
37998;DHT22;24079;51.824;4.682;2022-12-01T01:38:34;5.90;99.90
37998;DHT22;24079;51.824;4.682;2022-12-01T01:40:59;5.90;99.90
37998;DHT22;24079;51.824;4.682;2022-12-01T01:43:48;5.90;99.90
37998;DHT22;24079;51.824;4.682;2022-12-01T01:46:18;5.90;99.90
37998;DHT22;24079;51.824;4.682;2022-12-01T01:48:56;5.90;99.90
37998;DHT22;24079;51.824;4.682;2022-12-01T01:51:34;5.90;99.90
37998;DHT22;24079;51.824;4.682;2022-12-01T01:54:08;5.90;99.90
37998;DHT22;24079;51.824;4.682;2022-12-01T01:56:35;5.90;99.90
37998;DHT22;24079;51.824;4.682;2022-12-01T01:59:01;5.90;99.90
37998;DHT22;24079;51.824;4.682;2022-12-01T02:01:27;5.90;99.90
37998;DHT22;24079;51.824;4.682;2022-12-01T02:03:54;6.00;99.90
37998;DHT22;24079;51.824;4.682;2022-12-01T02:06:21;5.90;99.90
37998;DHT22;24079;51.824;4.682;2022-12-01T02:08:47;5.90;99.90
37998;DHT22;24079;51.824;4.682;2022-12-01T02:16:39;6.00;99.90
37998;DHT22;24079;51.824;4.682;2022-12-01T02:25:17;6.00;99.90
37998;DHT22;24079;51.824;4.682;2022-12-01T02:30:52;6.00;99.90
37998;DHT22;24079;51.824;4.682;2022-12-01T02:33:34;6.00;99.90
37998;DHT22;24079;51.824;4.682;2022-12-01T02:36:20;6.10;99.90
37998;DHT22;24079;51.824;4.682;2022-12-01T02:39:07;6.10;99.90
37998;DHT22;24079;51.824;4.682;2022-12-01T02:41:47;6.10;99.90
37998;DHT22;24079;51.824;4.682;2022-12-01T02:44:26;6.10;99.90
37998;DHT22;24079;51.824;4.682;2022-12-01T02:49:24;6.00;99.90
37998;DHT22;24079;51.824;4.682;2022-12-01T02:51:51;6.00;99.90
37998;DHT22;24079;51.824;4.682;2022-12-01T02:54:19;6.00;99.90
37998;DHT22;24079;51.824;4.682;2022-12-01T02:56:45;6.10;99.90
37998;DHT22;24079;51.824;4.682;2022-12-01T02:59:12;6.10;99.90
37998;DHT22;24079;51.824;4.682;2022-12-01T03:04:32;6.00;99.90
37998;DHT22;24079;51.824;4.682;2022-12-01T03:18:37;6.00;99.90
37998;DHT22;24079;51.824;4.682;2022-12-01T03:21:09;6.00;99.90
37998;DHT22;24079;51.824;4.682;2022-12-01T03:23:46;6.00;99.90
37998;DHT22;24079;51.824;4.682;2022-12-01T03:26:15;6.00;99.90
37998;DHT22;24079;51.824;4.682;2022-12-01T03:28:47;6.00;99.90
37998;DHT22;24079;51.824;4.682;2022-12-01T03:31:17;6.10;99.90
37998;DHT22;24079;51.824;4.682;2022-12-01T03:33:50;6.10;99.90
37998;DHT22;24079;51.824;4.682;2022-12-01T03:36:39;6.10;99.90
37998;DHT22;24079;51.824;4.682;2022-12-01T03:39:11;6.10;99.90
37998;DHT22;24079;51.824;4.682;2022-12-01T03:41:51;6.10;99.90
37998;DHT22;24079;51.824;4.682;2022-12-01T03:44:21;6.20;99.90
37998;DHT22;24079;51.824;4.682;2022-12-01T03:46:54;6.10;99.90
37998;DHT22;24079;51.824;4.682;2022-12-01T03:49:22;6.10;99.90
37998;DHT22;24079;51.824;4.682;2022-12-01T03:51:59;6.10;99.90
37998;DHT22;24079;51.824;4.682;2022-12-01T03:57:36;6.20;99.90
37998;DHT22;24079;51.824;4.682;2022-12-01T04:00:04;6.10;99.90
37998;DHT22;24079;51.824;4.682;2022-12-01T04:02:31;6.10;99.90
37998;DHT22;24079;51.824;4.682;2022-12-01T04:04:57;6.10;99.90
37998;DHT22;24079;51.824;4.682;2022-12-01T04:07:22;6.10;99.90
37998;DHT22;24079;51.824;4.682;2022-12-01T04:09:48;6.10;99.90
37998;DHT22;24079;51.824;4.682;2022-12-01T04:12:14;6.00;99.90
37998;DHT22;24079;51.824;4.682;2022-12-01T04:15:05;6.00;99.90
37998;DHT22;24079;51.824;4.682;2022-12-01T04:17:32;6.00;99.90
37998;DHT22;24079;51.824;4.682;2022-12-01T04:19:59;6.00;99.90
37998;DHT22;24079;51.824;4.682;2022-12-01T04:22:25;5.90;99.90
37998;DHT22;24079;51.824;4.682;2022-12-01T04:24:51;5.90;99.90
37998;DHT22;24079;51.824;4.682;2022-12-01T04:27:17;5.90;99.90
37998;DHT22;24079;51.824;4.682;2022-12-01T04:29:43;5.90;99.90
37998;DHT22;24079;51.824;4.682;2022-12-01T04:32:09;5.90;99.90
37998;DHT22;24079;51.824;4.682;2022-12-01T04:34:34;5.90;99.90
37998;DHT22;24079;51.824;4.682;2022-12-01T04:37:00;5.90;99.90
37998;DHT22;24079;51.824;4.682;2022-12-01T04:39:26;5.90;99.90
37998;DHT22;24079;51.824;4.682;2022-12-01T04:41:51;5.90;99.90
37998;DHT22;24079;51.824;4.682;2022-12-01T04:44:17;5.90;99.90
37998;DHT22;24079;51.824;4.682;2022-12-01T04:46:42;5.90;99.90
37998;DHT22;24079;51.824;4.682;2022-12-01T04:49:08;5.90;99.90
37998;DHT22;24079;51.824;4.682;2022-12-01T04:51:35;5.90;99.90
37998;DHT22;24079;51.824;4.682;2022-12-01T04:54:01;5.90;99.90
37998;DHT22;24079;51.824;4.682;2022-12-01T04:56:27;5.90;99.90
37998;DHT22;24079;51.824;4.682;2022-12-01T04:58:53;5.90;99.90
37998;DHT22;24079;51.824;4.682;2022-12-01T05:01:19;5.90;99.90
37998;DHT22;24079;51.824;4.682;2022-12-01T05:03:46;5.80;99.90
37998;DHT22;24079;51.824;4.682;2022-12-01T05:06:19;5.80;99.90
37998;DHT22;24079;51.824;4.682;2022-12-01T05:08:45;5.80;99.90
37998;DHT22;24079;51.824;4.682;2022-12-01T05:11:12;5.90;99.90
37998;DHT22;24079;51.824;4.682;2022-12-01T05:13:39;5.90;99.90
37998;DHT22;24079;51.824;4.682;2022-12-01T05:16:08;5.90;99.90
37998;DHT22;24079;51.824;4.682;2022-12-01T05:18:34;5.90;99.90
37998;DHT22;24079;51.824;4.682;2022-12-01T05:20:59;5.90;99.90
37998;DHT22;24079;51.824;4.682;2022-12-01T05:23:31;5.90;99.90
37998;DHT22;24079;51.824;4.682;2022-12-01T05:25:57;5.90;99.90
37998;DHT22;24079;51.824;4.682;2022-12-01T05:28:23;5.90;99.90
37998;DHT22;24079;51.824;4.682;2022-12-01T05:30:50;5.80;99.90
37998;DHT22;24079;51.824;4.682;2022-12-01T05:33:15;5.90;99.90
37998;DHT22;24079;51.824;4.682;2022-12-01T05:35:41;5.90;99.90
37998;DHT22;24079;51.824;4.682;2022-12-01T05:38:07;5.90;99.90
37998;DHT22;24079;51.824;4.682;2022-12-01T05:40:33;5.90;99.90
37998;DHT22;24079;51.824;4.682;2022-12-01T05:42:59;5.80;99.90
37998;DHT22;24079;51.824;4.682;2022-12-01T05:45:24;5.90;99.90
37998;DHT22;24079;51.824;4.682;2022-12-01T05:47:54;5.90;99.90
37998;DHT22;24079;51.824;4.682;2022-12-01T05:50:20;5.90;99.90
37998;DHT22;24079;51.824;4.682;2022-12-01T05:52:46;5.90;99.90
37998;DHT22;24079;51.824;4.682;2022-12-01T05:55:11;5.90;99.90
37998;DHT22;24079;51.824;4.682;2022-12-01T05:57:37;5.80;99.90
37998;DHT22;24079;51.824;4.682;2022-12-01T06:00:04;5.90;99.90
37998;DHT22;24079;51.824;4.682;2022-12-01T06:02:30;5.80;99.90
37998;DHT22;24079;51.824;4.682;2022-12-01T06:04:56;5.80;99.90
37998;DHT22;24079;51.824;4.682;2022-12-01T06:07:21;5.80;99.90
37998;DHT22;24079;51.824;4.682;2022-12-01T06:09:50;5.70;99.90
37998;DHT22;24079;51.824;4.682;2022-12-01T06:12:15;5.70;99.90
37998;DHT22;24079;51.824;4.682;2022-12-01T06:14:41;5.70;99.90
37998;DHT22;24079;51.824;4.682;2022-12-01T06:17:07;5.60;99.90
37998;DHT22;24079;51.824;4.682;2022-12-01T06:19:32;5.70;99.90
37998;DHT22;24079;51.824;4.682;2022-12-01T06:21:58;5.60;99.90
37998;DHT22;24079;51.824;4.682;2022-12-01T06:24:23;5.60;99.90
37998;DHT22;24079;51.824;4.682;2022-12-01T06:26:49;5.60;99.90
37998;DHT22;24079;51.824;4.682;2022-12-01T06:29:15;5.60;99.90
37998;DHT22;24079;51.824;4.682;2022-12-01T06:31:40;5.60;99.90
37998;DHT22;24079;51.824;4.682;2022-12-01T06:34:06;5.50;99.90
37998;DHT22;24079;51.824;4.682;2022-12-01T06:36:32;5.50;99.90
37998;DHT22;24079;51.824;4.682;2022-12-01T06:38:57;5.40;99.90
37998;DHT22;24079;51.824;4.682;2022-12-01T06:41:23;5.40;99.90
37998;DHT22;24079;51.824;4.682;2022-12-01T06:43:48;5.40;99.90
37998;DHT22;24079;51.824;4.682;2022-12-01T06:46:14;5.30;99.90
37998;DHT22;24079;51.824;4.682;2022-12-01T06:48:40;5.30;99.90
37998;DHT22;24079;51.824;4.682;2022-12-01T06:51:05;5.30;99.90
37998;DHT22;24079;51.824;4.682;2022-12-01T06:53:31;5.30;99.90
37998;DHT22;24079;51.824;4.682;2022-12-01T06:56:01;5.30;99.90
37998;DHT22;24079;51.824;4.682;2022-12-01T06:58:26;5.30;99.90
37998;DHT22;24079;51.824;4.682;2022-12-01T07:00:52;5.20;99.90
37998;DHT22;24079;51.824;4.682;2022-12-01T07:03:18;5.20;99.90
37998;DHT22;24079;51.824;4.682;2022-12-01T07:05:43;5.20;99.90
37998;DHT22;24079;51.824;4.682;2022-12-01T07:08:09;5.20;99.90
37998;DHT22;24079;51.824;4.682;2022-12-01T07:10:36;5.10;99.90
37998;DHT22;24079;51.824;4.682;2022-12-01T07:13:02;5.10;99.90
37998;DHT22;24079;51.824;4.682;2022-12-01T07:15:27;5.10;99.90
37998;DHT22;24079;51.824;4.682;2022-12-01T07:17:53;5.10;99.90
37998;DHT22;24079;51.824;4.682;2022-12-01T07:20:18;5.10;99.90
37998;DHT22;24079;51.824;4.682;2022-12-01T07:22:44;5.00;99.90
37998;DHT22;24079;51.824;4.682;2022-12-01T07:25:10;5.00;99.90
37998;DHT22;24079;51.824;4.682;2022-12-01T07:27:35;5.00;99.90
37998;DHT22;24079;51.824;4.682;2022-12-01T07:30:01;5.00;99.90
37998;DHT22;24079;51.824;4.682;2022-12-01T07:32:26;5.00;99.90
37998;DHT22;24079;51.824;4.682;2022-12-01T07:34:52;5.00;99.90
37998;DHT22;24079;51.824;4.682;2022-12-01T07:37:18;5.10;99.90
37998;DHT22;24079;51.824;4.682;2022-12-01T07:39:43;5.10;99.90
37998;DHT22;24079;51.824;4.682;2022-12-01T07:42:09;5.10;99.90
37998;DHT22;24079;51.824;4.682;2022-12-01T07:44:34;5.00;99.90
37998;DHT22;24079;51.824;4.682;2022-12-01T07:47:00;5.00;99.90
37998;DHT22;24079;51.824;4.682;2022-12-01T07:49:25;5.00;99.90
37998;DHT22;24079;51.824;4.682;2022-12-01T07:51:51;5.00;99.90
37998;DHT22;24079;51.824;4.682;2022-12-01T07:54:17;5.00;99.90
37998;DHT22;24079;51.824;4.682;2022-12-01T07:56:44;5.00;99.90
37998;DHT22;24079;51.824;4.682;2022-12-01T07:59:10;5.00;99.90
37998;DHT22;24079;51.824;4.682;2022-12-01T08:01:36;5.00;99.90
37998;DHT22;24079;51.824;4.682;2022-12-01T08:04:03;5.00;99.90
37998;DHT22;24079;51.824;4.682;2022-12-01T08:06:28;5.00;99.90
37998;DHT22;24079;51.824;4.682;2022-12-01T08:08:54;5.00;99.90
37998;DHT22;24079;51.824;4.682;2022-12-01T08:11:25;5.00;99.90
37998;DHT22;24079;51.824;4.682;2022-12-01T08:13:53;5.10;99.90
37998;DHT22;24079;51.824;4.682;2022-12-01T08:16:20;5.10;99.90
37998;DHT22;24079;51.824;4.682;2022-12-01T08:18:46;5.20;99.90
37998;DHT22;24079;51.824;4.682;2022-12-01T08:21:13;5.20;99.90
37998;DHT22;24079;51.824;4.682;2022-12-01T08:23:40;5.20;99.90
37998;DHT22;24079;51.824;4.682;2022-12-01T08:26:12;5.30;99.90
37998;DHT22;24079;51.824;4.682;2022-12-01T08:28:38;5.40;99.90
37998;DHT22;24079;51.824;4.682;2022-12-01T08:31:24;5.40;99.90
37998;DHT22;24079;51.824;4.682;2022-12-01T08:33:51;5.30;99.90
37998;DHT22;24079;51.824;4.682;2022-12-01T08:36:17;5.40;99.90
37998;DHT22;24079;51.824;4.682;2022-12-01T08:38:44;5.40;99.90
37998;DHT22;24079;51.824;4.682;2022-12-01T08:41:10;5.40;99.90
37998;DHT22;24079;51.824;4.682;2022-12-01T08:43:36;5.40;99.90
37998;DHT22;24079;51.824;4.682;2022-12-01T08:46:07;5.40;99.90
37998;DHT22;24079;51.824;4.682;2022-12-01T08:48:34;5.50;99.90
37998;DHT22;24079;51.824;4.682;2022-12-01T08:51:07;5.40;99.90
37998;DHT22;24079;51.824;4.682;2022-12-01T08:53:34;5.50;99.90
37998;DHT22;24079;51.824;4.682;2022-12-01T08:56:07;5.50;99.90
37998;DHT22;24079;51.824;4.682;2022-12-01T08:58:33;5.50;99.90
37998;DHT22;24079;51.824;4.682;2022-12-01T09:01:08;5.60;99.90
37998;DHT22;24079;51.824;4.682;2022-12-01T09:03:35;5.60;99.90
37998;DHT22;24079;51.824;4.682;2022-12-01T09:06:06;5.60;99.90
37998;DHT22;24079;51.824;4.682;2022-12-01T09:08:32;5.60;99.90
37998;DHT22;24079;51.824;4.682;2022-12-01T09:11:01;5.70;99.90
37998;DHT22;24079;51.824;4.682;2022-12-01T09:13:27;5.70;99.90
37998;DHT22;24079;51.824;4.682;2022-12-01T09:15:59;5.80;99.90
37998;DHT22;24079;51.824;4.682;2022-12-01T09:18:25;5.80;99.90
37998;DHT22;24079;51.824;4.682;2022-12-01T09:20:51;5.90;99.90
37998;DHT22;24079;51.824;4.682;2022-12-01T09:23:17;5.90;99.90
37998;DHT22;24079;51.824;4.682;2022-12-01T09:25:43;5.90;99.90
37998;DHT22;24079;51.824;4.682;2022-12-01T09:28:08;5.90;99.90
37998;DHT22;24079;51.824;4.682;2022-12-01T09:30:34;6.00;99.90
37998;DHT22;24079;51.824;4.682;2022-12-01T09:33:00;6.00;99.90
37998;DHT22;24079;51.824;4.682;2022-12-01T09:35:26;6.10;99.90
37998;DHT22;24079;51.824;4.682;2022-12-01T09:37:51;6.20;99.90
37998;DHT22;24079;51.824;4.682;2022-12-01T09:40:17;6.20;99.90
37998;DHT22;24079;51.824;4.682;2022-12-01T09:42:44;6.30;99.90
37998;DHT22;24079;51.824;4.682;2022-12-01T09:45:24;6.40;99.90
37998;DHT22;24079;51.824;4.682;2022-12-01T09:47:53;6.40;99.90
37998;DHT22;24079;51.824;4.682;2022-12-01T09:50:22;6.50;99.90
37998;DHT22;24079;51.824;4.682;2022-12-01T09:53:17;6.50;99.90
37998;DHT22;24079;51.824;4.682;2022-12-01T09:55:41;6.60;99.90
37998;DHT22;24079;51.824;4.682;2022-12-01T09:58:34;6.70;99.90
37998;DHT22;24079;51.824;4.682;2022-12-01T10:00:59;6.70;99.90
37998;DHT22;24079;51.824;4.682;2022-12-01T10:03:35;6.80;99.90
37998;DHT22;24079;51.824;4.682;2022-12-01T10:06:28;6.80;99.90
37998;DHT22;24079;51.824;4.682;2022-12-01T10:11:39;6.70;99.90
37998;DHT22;24079;51.824;4.682;2022-12-01T10:14:13;6.70;99.90
37998;DHT22;24079;51.824;4.682;2022-12-01T10:17:03;6.70;99.90
37998;DHT22;24079;51.824;4.682;2022-12-01T10:19:41;6.70;99.90
37998;DHT22;24079;51.824;4.682;2022-12-01T10:22:22;6.80;99.90
37998;DHT22;24079;51.824;4.682;2022-12-01T10:30:49;6.90;99.90
37998;DHT22;24079;51.824;4.682;2022-12-01T10:33:25;7.00;99.90
37998;DHT22;24079;51.824;4.682;2022-12-01T10:35:54;7.00;99.90
37998;DHT22;24079;51.824;4.682;2022-12-01T10:38:31;7.10;99.90
37998;DHT22;24079;51.824;4.682;2022-12-01T10:40:59;7.20;99.90
37998;DHT22;24079;51.824;4.682;2022-12-01T10:43:36;7.10;99.90
37998;DHT22;24079;51.824;4.682;2022-12-01T10:46:34;7.20;99.90
37998;DHT22;24079;51.824;4.682;2022-12-01T10:49:07;7.30;99.90
37998;DHT22;24079;51.824;4.682;2022-12-01T10:51:49;7.40;99.90
37998;DHT22;24079;51.824;4.682;2022-12-01T10:54:15;7.40;99.90
37998;DHT22;24079;51.824;4.682;2022-12-01T10:56:42;7.40;99.90
37998;DHT22;24079;51.824;4.682;2022-12-01T11:01:48;7.50;99.90
37998;DHT22;24079;51.824;4.682;2022-12-01T11:06:49;7.60;99.90
37998;DHT22;24079;51.824;4.682;2022-12-01T11:09:20;7.70;99.90
37998;DHT22;24079;51.824;4.682;2022-12-01T11:11:57;7.70;99.90
37998;DHT22;24079;51.824;4.682;2022-12-01T11:14:32;7.70;99.90
37998;DHT22;24079;51.824;4.682;2022-12-01T11:17:25;7.70;99.90
37998;DHT22;24079;51.824;4.682;2022-12-01T11:19:52;7.70;99.90
37998;DHT22;24079;51.824;4.682;2022-12-01T11:24:59;7.80;99.90
37998;DHT22;24079;51.824;4.682;2022-12-01T11:27:34;7.80;99.90
37998;DHT22;24079;51.824;4.682;2022-12-01T11:30:23;7.80;99.90
37998;DHT22;24079;51.824;4.682;2022-12-01T11:32:56;7.80;99.90
37998;DHT22;24079;51.824;4.682;2022-12-01T11:35:26;7.90;99.90
37998;DHT22;24079;51.824;4.682;2022-12-01T11:37:55;7.90;99.90
37998;DHT22;24079;51.824;4.682;2022-12-01T11:42:53;8.00;99.90
37998;DHT22;24079;51.824;4.682;2022-12-01T11:45:22;8.00;99.90
37998;DHT22;24079;51.824;4.682;2022-12-01T11:50:41;8.10;99.90
37998;DHT22;24079;51.824;4.682;2022-12-01T11:53:26;8.00;99.90
37998;DHT22;24079;51.824;4.682;2022-12-01T11:56:19;8.00;99.90
37998;DHT22;24079;51.824;4.682;2022-12-01T11:58:49;8.00;99.90
37998;DHT22;24079;51.824;4.682;2022-12-01T12:07:14;8.10;99.90
37998;DHT22;24079;51.824;4.682;2022-12-01T12:13:01;8.00;99.90
37998;DHT22;24079;51.824;4.682;2022-12-01T12:15:38;8.10;99.90
37998;DHT22;24079;51.824;4.682;2022-12-01T12:18:32;8.00;99.90
37998;DHT22;24079;51.824;4.682;2022-12-01T12:45:05;8.00;99.90
37998;DHT22;24079;51.824;4.682;2022-12-01T12:56:28;8.20;99.90
37998;DHT22;24079;51.824;4.682;2022-12-01T12:59:33;8.10;99.90
37998;DHT22;24079;51.824;4.682;2022-12-01T13:02:26;8.10;99.90
37998;DHT22;24079;51.824;4.682;2022-12-01T13:07:59;8.10;99.90
37998;DHT22;24079;51.824;4.682;2022-12-01T13:13:30;8.10;99.90
37998;DHT22;24079;51.824;4.682;2022-12-01T13:15:59;8.10;99.90
37998;DHT22;24079;51.824;4.682;2022-12-01T13:18:39;8.10;99.90
37998;DHT22;24079;51.824;4.682;2022-12-01T13:21:06;8.00;99.90
37998;DHT22;24079;51.824;4.682;2022-12-01T13:23:37;8.00;99.90
37998;DHT22;24079;51.824;4.682;2022-12-01T13:26:04;8.00;99.90
37998;DHT22;24079;51.824;4.682;2022-12-01T13:28:46;8.00;99.90
37998;DHT22;24079;51.824;4.682;2022-12-01T13:31:13;8.00;99.90
37998;DHT22;24079;51.824;4.682;2022-12-01T13:34:03;8.00;99.90
37998;DHT22;24079;51.824;4.682;2022-12-01T13:36:30;8.00;99.90
37998;DHT22;24079;51.824;4.682;2022-12-01T13:39:14;8.10;99.90
37998;DHT22;24079;51.824;4.682;2022-12-01T13:41:43;8.10;99.90
37998;DHT22;24079;51.824;4.682;2022-12-01T13:44:25;8.00;99.90
37998;DHT22;24079;51.824;4.682;2022-12-01T13:47:04;8.00;99.90
37998;DHT22;24079;51.824;4.682;2022-12-01T13:52:49;7.90;99.90
37998;DHT22;24079;51.824;4.682;2022-12-01T13:57:48;8.10;99.90
37998;DHT22;24079;51.824;4.682;2022-12-01T14:05:53;8.30;99.90
37998;DHT22;24079;51.824;4.682;2022-12-01T14:08:33;8.20;99.90
37998;DHT22;24079;51.824;4.682;2022-12-01T14:11:24;8.10;99.90
37998;DHT22;24079;51.824;4.682;2022-12-01T14:14:02;8.10;99.90
37998;DHT22;24079;51.824;4.682;2022-12-01T14:16:54;8.00;99.90
37998;DHT22;24079;51.824;4.682;2022-12-01T14:19:46;7.90;99.90
37998;DHT22;24079;51.824;4.682;2022-12-01T14:24:57;7.70;99.90
37998;DHT22;24079;51.824;4.682;2022-12-01T14:27:37;7.60;99.90
37998;DHT22;24079;51.824;4.682;2022-12-01T14:36:09;7.50;99.90
37998;DHT22;24079;51.824;4.682;2022-12-01T14:38:36;7.50;99.90
37998;DHT22;24079;51.824;4.682;2022-12-01T14:41:07;7.50;99.90
37998;DHT22;24079;51.824;4.682;2022-12-01T14:43:34;7.40;99.90
37998;DHT22;24079;51.824;4.682;2022-12-01T14:46:22;7.50;99.90
37998;DHT22;24079;51.824;4.682;2022-12-01T14:48:49;7.40;99.90
37998;DHT22;24079;51.824;4.682;2022-12-01T14:51:35;7.50;99.90
37998;DHT22;24079;51.824;4.682;2022-12-01T14:54:06;7.40;99.90
37998;DHT22;24079;51.824;4.682;2022-12-01T14:56:35;7.40;99.90
37998;DHT22;24079;51.824;4.682;2022-12-01T14:59:14;7.30;99.90
37998;DHT22;24079;51.824;4.682;2022-12-01T15:01:42;7.30;99.90
37998;DHT22;24079;51.824;4.682;2022-12-01T15:04:08;7.20;99.90
37998;DHT22;24079;51.824;4.682;2022-12-01T15:06:34;7.20;99.90
37998;DHT22;24079;51.824;4.682;2022-12-01T15:11:37;7.20;99.90
37998;DHT22;24079;51.824;4.682;2022-12-01T15:17:05;7.10;99.90
37998;DHT22;24079;51.824;4.682;2022-12-01T15:19:39;7.00;99.90
37998;DHT22;24079;51.824;4.682;2022-12-01T15:22:14;7.00;99.90
37998;DHT22;24079;51.824;4.682;2022-12-01T15:24:40;7.00;99.90
37998;DHT22;24079;51.824;4.682;2022-12-01T15:27:26;6.90;99.90
37998;DHT22;24079;51.824;4.682;2022-12-01T15:29:52;6.90;99.90
37998;DHT22;24079;51.824;4.682;2022-12-01T15:32:21;6.90;99.90
37998;DHT22;24079;51.824;4.682;2022-12-01T15:34:51;6.90;99.90
37998;DHT22;24079;51.824;4.682;2022-12-01T15:37:19;6.80;99.90
37998;DHT22;24079;51.824;4.682;2022-12-01T15:39:52;6.80;99.90
37998;DHT22;24079;51.824;4.682;2022-12-01T15:42:26;6.70;99.90
37998;DHT22;24079;51.824;4.682;2022-12-01T15:45:11;6.60;99.90
37998;DHT22;24079;51.824;4.682;2022-12-01T15:50:37;6.50;99.90
37998;DHT22;24079;51.824;4.682;2022-12-01T15:59:40;6.50;99.90
37998;DHT22;24079;51.824;4.682;2022-12-01T16:04:43;6.40;99.90
37998;DHT22;24079;51.824;4.682;2022-12-01T16:07:10;6.30;99.90
37998;DHT22;24079;51.824;4.682;2022-12-01T16:09:56;6.30;99.90
37998;DHT22;24079;51.824;4.682;2022-12-01T16:12:30;6.70;99.90
37998;DHT22;24079;51.824;4.682;2022-12-01T16:17:28;7.20;99.90
37998;DHT22;24079;51.824;4.682;2022-12-01T16:20:16;7.30;99.90
37998;DHT22;24079;51.824;4.682;2022-12-01T16:22:48;7.50;99.90
37998;DHT22;24079;51.824;4.682;2022-12-01T16:25:16;7.40;99.90
37998;DHT22;24079;51.824;4.682;2022-12-01T16:27:49;7.30;99.90
37998;DHT22;24079;51.824;4.682;2022-12-01T16:30:26;7.30;99.90
37998;DHT22;24079;51.824;4.682;2022-12-01T16:33:24;7.20;99.90
37998;DHT22;24079;51.824;4.682;2022-12-01T16:35:50;7.20;99.90
37998;DHT22;24079;51.824;4.682;2022-12-01T16:38:22;7.00;99.90
37998;DHT22;24079;51.824;4.682;2022-12-01T16:40:49;6.80;99.90
37998;DHT22;24079;51.824;4.682;2022-12-01T16:43:17;6.70;99.90
37998;DHT22;24079;51.824;4.682;2022-12-01T16:45:44;6.60;99.90
37998;DHT22;24079;51.824;4.682;2022-12-01T16:48:10;6.40;99.90
37998;DHT22;24079;51.824;4.682;2022-12-01T16:50:37;6.40;99.90
37998;DHT22;24079;51.824;4.682;2022-12-01T16:53:02;6.50;99.90
37998;DHT22;24079;51.824;4.682;2022-12-01T16:55:40;6.50;99.90
37998;DHT22;24079;51.824;4.682;2022-12-01T16:58:06;6.50;99.90
37998;DHT22;24079;51.824;4.682;2022-12-01T17:00:32;6.40;99.90
37998;DHT22;24079;51.824;4.682;2022-12-01T17:02:57;6.40;99.90
37998;DHT22;24079;51.824;4.682;2022-12-01T17:05:23;6.40;99.90
37998;DHT22;24079;51.824;4.682;2022-12-01T17:07:49;6.30;99.90
37998;DHT22;24079;51.824;4.682;2022-12-01T17:10:15;6.30;99.90
37998;DHT22;24079;51.824;4.682;2022-12-01T17:12:42;6.40;99.90
37998;DHT22;24079;51.824;4.682;2022-12-01T17:15:08;6.30;99.90
37998;DHT22;24079;51.824;4.682;2022-12-01T17:17:34;6.10;99.90
37998;DHT22;24079;51.824;4.682;2022-12-01T17:20:01;6.10;99.90
37998;DHT22;24079;51.824;4.682;2022-12-01T17:22:26;6.10;99.90
37998;DHT22;24079;51.824;4.682;2022-12-01T17:24:52;6.10;99.90
37998;DHT22;24079;51.824;4.682;2022-12-01T17:27:20;6.10;99.90
37998;DHT22;24079;51.824;4.682;2022-12-01T17:29:46;6.10;99.90
37998;DHT22;24079;51.824;4.682;2022-12-01T17:32:12;6.00;99.90
37998;DHT22;24079;51.824;4.682;2022-12-01T17:34:38;5.80;99.90
37998;DHT22;24079;51.824;4.682;2022-12-01T17:37:04;5.70;99.90
37998;DHT22;24079;51.824;4.682;2022-12-01T17:39:30;5.60;99.90
37998;DHT22;24079;51.824;4.682;2022-12-01T17:41:55;5.60;99.90
37998;DHT22;24079;51.824;4.682;2022-12-01T17:44:21;5.60;99.90
37998;DHT22;24079;51.824;4.682;2022-12-01T17:46:47;5.60;99.90
37998;DHT22;24079;51.824;4.682;2022-12-01T17:49:12;5.50;99.90
37998;DHT22;24079;51.824;4.682;2022-12-01T17:51:39;5.50;99.90
37998;DHT22;24079;51.824;4.682;2022-12-01T17:54:05;5.40;99.90
37998;DHT22;24079;51.824;4.682;2022-12-01T17:56:31;5.40;99.90
37998;DHT22;24079;51.824;4.682;2022-12-01T17:58:57;5.40;99.90
37998;DHT22;24079;51.824;4.682;2022-12-01T18:01:22;5.40;99.90
37998;DHT22;24079;51.824;4.682;2022-12-01T18:03:48;5.40;99.90
37998;DHT22;24079;51.824;4.682;2022-12-01T18:06:15;5.40;99.90
37998;DHT22;24079;51.824;4.682;2022-12-01T18:08:41;5.30;99.90
37998;DHT22;24079;51.824;4.682;2022-12-01T18:11:10;5.30;99.90
37998;DHT22;24079;51.824;4.682;2022-12-01T18:13:41;5.30;99.90
37998;DHT22;24079;51.824;4.682;2022-12-01T18:16:11;5.20;99.90
37998;DHT22;24079;51.824;4.682;2022-12-01T18:18:37;5.20;99.90
37998;DHT22;24079;51.824;4.682;2022-12-01T18:21:05;5.20;99.90
37998;DHT22;24079;51.824;4.682;2022-12-01T18:23:31;5.30;99.90
37998;DHT22;24079;51.824;4.682;2022-12-01T18:26:02;5.30;99.90